首页
METAR-TAF:

METAR-TAF

机场 :

Ephrata Municipal Airport

Ephrata, 华盛顿, 美国

纬度: 47-18-27N, 经度: 119-30-57W, 海拔: 389米

当前天气观测

该预报发布于41分钟前的00:53 UTC
风速11节,风向西
温度 22°C
湿度 20%
气压 1016 hPa
能見度: 16.1公里
多云层高于11000英尺

METAR: KEPH 210053Z AUTO 26011KT 10SM BKN110 22/M02 A2999 RMK AO2 SLP154 T02221017

时间: 18:34 (01:34 UTC)


TAF: 丢失

超过4000个机场的气象观测和天气预报(METAR&TAF报告)。

可查询的气象台以黄色和红色小点在地图上表示。

将鼠标移到小点上方,可查看气象台名称。

然后点击查看天气观测和预报。

如需切换地图:点击带黑十字的绿色按钮放大地图;点击带横线的绿色按钮缩小地图;或者点击绿色箭头查看邻近地区的地图。


METAR-TAF: